createdAt,value
2023-05-08T00:00:00.845Z,0.2
2023-05-08T00:05:00.581Z,2.3
2023-05-08T00:10:00.321Z,3.0
2023-05-08T00:15:00.290Z,2.5
2023-05-08T00:20:00.317Z,0.7
2023-05-08T00:25:00.326Z,2.1
2023-05-08T00:30:00.274Z,1.3
2023-05-08T00:35:00.322Z,0.9
2023-05-08T00:40:00.299Z,0.6
2023-05-08T00:45:00.334Z,1.4
2023-05-08T00:50:00.309Z,0.5
2023-05-08T00:55:00.304Z,1.0
2023-05-08T01:00:00.316Z,0.5
2023-05-08T01:05:00.303Z,0.2
2023-05-08T01:10:00.355Z,0.5
2023-05-08T01:15:00.301Z,0.4
2023-05-08T01:20:00.300Z,1.0
2023-05-08T01:25:00.262Z,1.9
2023-05-08T01:30:00.307Z,1.2
2023-05-08T01:35:00.339Z,2.4
2023-05-08T01:40:00.365Z,1.1
2023-05-08T01:45:00.307Z,0.7
2023-05-08T01:50:00.321Z,1.0
2023-05-08T01:55:00.275Z,0.7
2023-05-08T02:00:00.344Z,1.8
2023-05-08T02:05:00.248Z,1.3
2023-05-08T02:10:00.288Z,2.4
2023-05-08T02:15:00.324Z,2.3
2023-05-08T02:20:00.319Z,3.2
2023-05-08T02:25:00.265Z,2.8
2023-05-08T02:30:00.449Z,2.4
2023-05-08T02:35:03.957Z,2.2
2023-05-08T02:40:00.401Z,0.8
2023-05-08T02:45:00.252Z,0.4
2023-05-08T02:50:00.436Z,0.2
2023-05-08T02:55:00.323Z,1.1
2023-05-08T03:00:00.293Z,0.2
2023-05-08T03:05:00.312Z,1.9
2023-05-08T03:10:00.396Z,0.6
2023-05-08T03:15:00.308Z,1.1
2023-05-08T03:20:00.306Z,0.1
2023-05-08T03:25:00.326Z,0.7
2023-05-08T03:30:00.313Z,1.8
2023-05-08T03:35:00.314Z,1.5
2023-05-08T03:40:00.303Z,1.0
2023-05-08T03:45:00.303Z,0.2
2023-05-08T03:50:00.342Z,0.3
2023-05-08T03:55:00.280Z,0.6
2023-05-08T04:00:00.300Z,1.2
2023-05-08T04:05:00.341Z,0.5
2023-05-08T04:10:00.308Z,2.1
2023-05-08T04:15:00.317Z,4.0
2023-05-08T04:20:00.300Z,2.5
2023-05-08T04:25:00.322Z,3.3
2023-05-08T04:30:00.340Z,2.7
2023-05-08T04:35:00.329Z,3.3
2023-05-08T04:40:00.328Z,4.0
2023-05-08T04:45:00.314Z,3.7
2023-05-08T04:50:03.267Z,3.2
2023-05-08T04:55:00.324Z,3.1
2023-05-08T05:00:00.586Z,5.8
2023-05-08T05:05:00.392Z,5.3
2023-05-08T05:10:00.332Z,6.8
2023-05-08T05:15:00.273Z,5.2
2023-05-08T05:20:00.413Z,2.8
2023-05-08T05:25:00.274Z,6.0
2023-05-08T05:30:00.333Z,6.4
2023-05-08T05:35:00.350Z,4.2
2023-05-08T05:40:00.354Z,5.6
2023-05-08T05:45:00.268Z,4.8
2023-05-08T05:50:00.284Z,3.8
2023-05-08T05:55:00.264Z,3.5
2023-05-08T06:00:00.425Z,4.4
2023-05-08T06:05:00.326Z,8.0
2023-05-08T06:10:00.331Z,5.4
2023-05-08T06:15:00.367Z,5.8
2023-05-08T06:20:00.338Z,1.9
2023-05-08T06:25:00.370Z,5.4
2023-05-08T06:30:00.331Z,3.0
2023-05-08T06:35:00.339Z,7.9
2023-05-08T06:40:12.809Z,3.1
2023-05-08T06:45:00.275Z,4.7
2023-05-08T06:50:00.326Z,8.5
2023-05-08T06:55:00.355Z,5.8
2023-05-08T07:00:00.318Z,5.5
2023-05-08T07:05:00.560Z,6.7
2023-05-08T07:10:00.332Z,6.3
2023-05-08T07:15:10.883Z,7.5
2023-05-08T07:20:00.341Z,4.7
2023-05-08T07:25:00.276Z,9.3
2023-05-08T07:30:00.346Z,9.1
2023-05-08T07:35:00.280Z,11.6
2023-05-08T07:40:00.339Z,11.3
2023-05-08T07:45:00.419Z,10.8
2023-05-08T07:50:00.332Z,12.9
2023-05-08T07:55:00.322Z,7.0
2023-05-08T08:00:00.317Z,4.4
2023-05-08T08:05:00.449Z,5.4
2023-05-08T08:10:00.350Z,11.6
2023-05-08T08:15:00.328Z,6.6
2023-05-08T08:20:00.273Z,6.8
2023-05-08T08:25:00.452Z,11.6
2023-05-08T08:30:17.338Z,10.1
2023-05-08T08:35:00.295Z,7.1
2023-05-08T08:40:00.332Z,11.8
2023-05-08T08:45:00.264Z,12.7
2023-05-08T08:50:00.424Z,10.4
2023-05-08T08:55:00.263Z,8.1
2023-05-08T09:00:00.323Z,9.6
2023-05-08T09:05:00.406Z,6.5
2023-05-08T09:10:00.410Z,8.0
2023-05-08T09:15:00.575Z,8.2
2023-05-08T09:20:00.295Z,11.6
2023-05-08T09:25:00.276Z,7.8
2023-05-08T09:30:00.332Z,7.3
2023-05-08T09:35:00.388Z,10.6
2023-05-08T09:40:00.290Z,9.8
2023-05-08T09:45:00.351Z,12.6
2023-05-08T09:50:00.494Z,10.9
2023-05-08T09:55:00.291Z,10.2
2023-05-08T10:00:00.332Z,8.8
2023-05-08T10:05:00.385Z,11.1
2023-05-08T10:10:00.295Z,6.3
2023-05-08T10:15:00.360Z,9.0
2023-05-08T10:20:00.423Z,4.7
2023-05-08T10:25:00.301Z,5.4
2023-05-08T10:30:00.442Z,5.4
2023-05-08T10:35:00.375Z,5.6
2023-05-08T10:40:00.419Z,4.9
2023-05-08T10:45:00.337Z,6.7
2023-05-08T10:50:00.448Z,7.6
2023-05-08T10:55:00.307Z,7.8
2023-05-08T11:00:00.291Z,8.4
2023-05-08T11:05:00.270Z,9.2
2023-05-08T11:10:00.348Z,5.9
2023-05-08T11:15:00.395Z,3.6
2023-05-08T11:20:00.332Z,4.2
2023-05-08T11:25:00.353Z,9.0
2023-05-08T11:30:00.597Z,4.9
2023-05-08T11:35:00.281Z,9.3
2023-05-08T11:40:00.394Z,6.1
2023-05-08T11:45:00.328Z,9.8
2023-05-08T11:50:00.366Z,9.4
2023-05-08T11:55:00.337Z,6.9
2023-05-08T12:00:00.324Z,6.2
2023-05-08T12:05:00.529Z,7.7
2023-05-08T12:10:00.282Z,8.0
2023-05-08T12:15:00.290Z,5.9
2023-05-08T12:20:00.328Z,7.4
2023-05-08T12:25:00.331Z,3.1
2023-05-08T12:30:00.278Z,11.8
2023-05-08T12:35:00.264Z,12.4
2023-05-08T12:40:00.320Z,8.4
2023-05-08T12:45:00.291Z,3.9
2023-05-08T12:50:00.336Z,10.6
2023-05-08T12:55:00.295Z,9.1
2023-05-08T13:00:04.278Z,14.3
2023-05-08T13:05:00.279Z,6.9
2023-05-08T13:10:00.538Z,6.6
2023-05-08T13:15:00.344Z,9.1
2023-05-08T13:20:00.403Z,8.2
2023-05-08T13:25:00.344Z,5.0
2023-05-08T13:30:00.410Z,8.9
2023-05-08T13:35:01.379Z,5.6
2023-05-08T13:40:00.425Z,10.5
2023-05-08T13:45:00.274Z,12.9
2023-05-08T13:50:00.520Z,8.0
2023-05-08T13:55:00.351Z,9.5
2023-05-08T14:00:00.326Z,14.0
2023-05-08T14:05:00.304Z,8.0
2023-05-08T14:10:00.350Z,4.5
2023-05-08T14:15:00.403Z,4.6
2023-05-08T14:20:00.575Z,7.6
2023-05-08T14:25:00.283Z,11.9
2023-05-08T14:30:00.437Z,9.0
2023-05-08T14:35:00.332Z,6.7
2023-05-08T14:40:00.610Z,12.1
2023-05-08T14:45:00.495Z,8.7
2023-05-08T14:50:00.307Z,6.3
2023-05-08T14:55:00.740Z,14.3
2023-05-08T15:00:00.345Z,15.6
2023-05-08T15:05:00.289Z,4.3
2023-05-08T15:10:00.336Z,7.4
2023-05-08T15:15:04.525Z,8.7
2023-05-08T15:20:00.284Z,4.9
2023-05-08T15:25:00.437Z,10.4
2023-05-08T15:30:00.599Z,7.0
2023-05-08T15:35:00.545Z,10.0
2023-05-08T15:40:00.326Z,5.0
2023-05-08T15:45:00.543Z,6.5
2023-05-08T15:50:00.280Z,13.7
2023-05-08T15:55:00.412Z,10.2
2023-05-08T16:00:00.616Z,5.5
2023-05-08T16:05:00.340Z,8.0
2023-05-08T16:10:00.351Z,6.0
2023-05-08T16:15:00.344Z,7.6
2023-05-08T16:20:00.421Z,5.5
2023-05-08T16:25:00.458Z,8.6
2023-05-08T16:30:00.338Z,7.9
2023-05-08T16:35:00.548Z,8.0
2023-05-08T16:40:00.554Z,7.5
2023-05-08T16:45:00.313Z,6.9
2023-05-08T16:50:00.587Z,7.0
2023-05-08T16:55:00.812Z,3.5
2023-05-08T17:00:00.309Z,5.3
2023-05-08T17:05:00.343Z,7.7
2023-05-08T17:10:00.312Z,9.2
2023-05-08T17:15:00.284Z,11.6
2023-05-08T17:20:00.336Z,9.1
2023-05-08T17:25:00.401Z,7.7
2023-05-08T17:30:00.308Z,7.1
2023-05-08T17:35:00.403Z,5.5
2023-05-08T17:40:00.646Z,3.2
2023-05-08T17:45:00.337Z,2.9
2023-05-08T17:50:00.410Z,8.6
2023-05-08T17:55:00.287Z,5.7
2023-05-08T18:00:00.342Z,5.5
2023-05-08T18:05:00.404Z,5.4
2023-05-08T18:10:00.402Z,5.8
2023-05-08T18:15:00.376Z,4.6
2023-05-08T18:20:00.341Z,7.1
2023-05-08T18:25:00.342Z,6.0
2023-05-08T18:30:00.348Z,4.8
2023-05-08T18:35:00.407Z,5.8
2023-05-08T18:40:00.285Z,5.0
2023-05-08T18:45:00.404Z,2.7
2023-05-08T18:50:00.447Z,3.5
2023-05-08T18:55:00.361Z,3.8
2023-05-08T19:00:00.317Z,3.3
2023-05-08T19:05:00.253Z,1.4
2023-05-08T19:10:00.373Z,4.5
2023-05-08T19:15:00.298Z,2.9
2023-05-08T19:20:00.318Z,1.7
2023-05-08T19:25:00.271Z,3.4
2023-05-08T19:30:00.325Z,3.3
2023-05-08T19:35:00.253Z,2.9
2023-05-08T19:40:00.348Z,2.6
2023-05-08T19:45:00.381Z,2.6
2023-05-08T19:50:00.302Z,1.3
2023-05-08T19:55:00.342Z,1.8
2023-05-08T20:00:00.299Z,1.5
2023-05-08T20:05:21.591Z,1.8
2023-05-08T20:10:00.272Z,1.9
2023-05-08T20:15:00.338Z,2.2
2023-05-08T20:20:00.456Z,1.8
2023-05-08T20:25:04.588Z,1.5
2023-05-08T20:30:00.296Z,2.5
2023-05-08T20:35:00.268Z,1.7
2023-05-08T20:40:00.350Z,2.1
2023-05-08T20:45:00.255Z,2.2
2023-05-08T20:50:00.301Z,0.6
2023-05-08T20:55:00.318Z,0.7
2023-05-08T21:00:00.384Z,0.5
2023-05-08T21:05:00.631Z,1.2
2023-05-08T21:10:00.331Z,1.4
2023-05-08T21:15:00.248Z,1.1
2023-05-08T21:20:00.301Z,1.9
2023-05-08T21:25:00.305Z,2.2
2023-05-08T21:30:00.339Z,1.1
2023-05-08T21:35:00.266Z,1.8
2023-05-08T21:40:00.344Z,1.6
2023-05-08T21:45:00.319Z,0.3
2023-05-08T21:50:00.345Z,0.3
2023-05-08T21:55:00.304Z,1.3
2023-05-08T22:00:00.302Z,1.4
2023-05-08T22:05:00.342Z,3.0
2023-05-08T22:10:00.300Z,2.6
2023-05-08T22:15:00.350Z,2.4
2023-05-08T22:20:00.437Z,1.3
2023-05-08T22:25:00.253Z,1.8
2023-05-08T22:30:00.321Z,1.6
2023-05-08T22:35:00.293Z,1.5
2023-05-08T22:40:00.321Z,2.5
2023-05-08T22:45:00.331Z,1.7
2023-05-08T22:50:00.302Z,2.7
2023-05-08T22:55:00.273Z,1.6
2023-05-08T23:00:00.300Z,1.7
2023-05-08T23:05:00.438Z,2.3
2023-05-08T23:10:00.343Z,2.1
2023-05-08T23:15:00.542Z,2.4
2023-05-08T23:20:01.336Z,2.2
2023-05-08T23:25:00.299Z,3.1
2023-05-08T23:30:00.315Z,3.4
2023-05-08T23:35:00.311Z,2.0
2023-05-08T23:40:00.283Z,2.3
2023-05-08T23:45:00.272Z,3.3
2023-05-08T23:50:00.339Z,2.1
2023-05-08T23:55:00.323Z,1.2
